sensor_id;sensor_type;location;lat;lon;timestamp;pressure;altitude;pressure_sealevel;temperature;humidity
61571;BME280;47463;49.884;10.010;2023-07-31T00:00:01;101700;;;16.6;60
61571;BME280;47463;49.884;10.010;2023-07-31T00:05:01;101700;;;16.7;60
61571;BME280;47463;49.884;10.010;2023-07-31T00:10:01;101700;;;16.8;59
61571;BME280;47463;49.884;10.010;2023-07-31T00:15:01;101690;;;16.8;59
61571;BME280;47463;49.884;10.010;2023-07-31T00:20:01;101680;;;16.8;59
61571;BME280;47463;49.884;10.010;2023-07-31T00:25:01;101680;;;16.8;59
61571;BME280;47463;49.884;10.010;2023-07-31T00:30:01;101680;;;16.9;59
61571;BME280;47463;49.884;10.010;2023-07-31T00:35:01;101690;;;16.9;59
61571;BME280;47463;49.884;10.010;2023-07-31T00:40:01;101680;;;16.8;60
61571;BME280;47463;49.884;10.010;2023-07-31T00:45:01;101670;;;16.8;59
61571;BME280;47463;49.884;10.010;2023-07-31T00:50:01;101670;;;16.7;60
61571;BME280;47463;49.884;10.010;2023-07-31T00:55:01;101670;;;16.5;60
61571;BME280;47463;49.884;10.010;2023-07-31T01:00:01;101670;;;16.6;60
61571;BME280;47463;49.884;10.010;2023-07-31T01:05:01;101670;;;16.5;61
61571;BME280;47463;49.884;10.010;2023-07-31T01:10:03;101670;;;16.5;61
61571;BME280;47463;49.884;10.010;2023-07-31T01:15:02;101670;;;16.6;61
61571;BME280;47463;49.884;10.010;2023-07-31T01:20:01;101660;;;16.6;60
61571;BME280;47463;49.884;10.010;2023-07-31T01:25:05;101650;;;16.6;60
61571;BME280;47463;49.884;10.010;2023-07-31T01:30:03;101660;;;16.5;61
61571;BME280;47463;49.884;10.010;2023-07-31T01:35:01;101650;;;16.4;62
61571;BME280;47463;49.884;10.010;2023-07-31T01:40:01;101640;;;16.3;62
61571;BME280;47463;49.884;10.010;2023-07-31T01:45:01;101640;;;16.3;62
61571;BME280;47463;49.884;10.010;2023-07-31T01:50:01;101630;;;16.3;62
61571;BME280;47463;49.884;10.010;2023-07-31T01:55:01;101630;;;16.3;62
61571;BME280;47463;49.884;10.010;2023-07-31T02:00:01;101620;;;16.2;63
61571;BME280;47463;49.884;10.010;2023-07-31T02:05:01;101620;;;16.1;63
61571;BME280;47463;49.884;10.010;2023-07-31T02:10:01;101620;;;16.1;63
61571;BME280;47463;49.884;10.010;2023-07-31T02:15:01;101620;;;16.1;63
61571;BME280;47463;49.884;10.010;2023-07-31T02:20:01;101610;;;16;64
61571;BME280;47463;49.884;10.010;2023-07-31T02:25:01;101610;;;16;63
61571;BME280;47463;49.884;10.010;2023-07-31T02:30:01;101600;;;16;64
61571;BME280;47463;49.884;10.010;2023-07-31T02:35:01;101600;;;16;64
61571;BME280;47463;49.884;10.010;2023-07-31T02:40:01;101600;;;16;64
61571;BME280;47463;49.884;10.010;2023-07-31T02:45:01;101580;;;16;64
61571;BME280;47463;49.884;10.010;2023-07-31T02:50:01;101580;;;16;64
61571;BME280;47463;49.884;10.010;2023-07-31T02:55:01;101580;;;15.9;65
61571;BME280;47463;49.884;10.010;2023-07-31T03:00:01;101600;;;15.9;65
61571;BME280;47463;49.884;10.010;2023-07-31T03:05:01;101590;;;15.8;65
61571;BME280;47463;49.884;10.010;2023-07-31T03:10:01;101580;;;15.5;66
61571;BME280;47463;49.884;10.010;2023-07-31T03:15:01;101600;;;15.5;66
61571;BME280;47463;49.884;10.010;2023-07-31T03:20:01;101600;;;15.5;66
61571;BME280;47463;49.884;10.010;2023-07-31T03:25:01;101590;;;15.5;66
61571;BME280;47463;49.884;10.010;2023-07-31T03:30:02;101580;;;15.5;67
61571;BME280;47463;49.884;10.010;2023-07-31T03:35:01;101580;;;15.5;67
61571;BME280;47463;49.884;10.010;2023-07-31T03:40:01;101580;;;15.6;66
61571;BME280;47463;49.884;10.010;2023-07-31T03:45:01;101580;;;15.6;66
61571;BME280;47463;49.884;10.010;2023-07-31T03:50:01;101590;;;15.6;66
61571;BME280;47463;49.884;10.010;2023-07-31T03:55:01;101590;;;15.6;66
61571;BME280;47463;49.884;10.010;2023-07-31T04:00:01;101580;;;15.6;66
61571;BME280;47463;49.884;10.010;2023-07-31T04:05:01;101580;;;15.6;67
61571;BME280;47463;49.884;10.010;2023-07-31T04:10:01;101580;;;15.5;67
61571;BME280;47463;49.884;10.010;2023-07-31T04:15:01;101570;;;15.6;67
61571;BME280;47463;49.884;10.010;2023-07-31T04:20:01;101580;;;15.6;67
61571;BME280;47463;49.884;10.010;2023-07-31T04:25:01;101580;;;15.7;67
61571;BME280;47463;49.884;10.010;2023-07-31T04:30:01;101590;;;15.7;67
61571;BME280;47463;49.884;10.010;2023-07-31T04:35:01;101580;;;15.6;67
61571;BME280;47463;49.884;10.010;2023-07-31T04:40:01;101590;;;15.7;67
61571;BME280;47463;49.884;10.010;2023-07-31T04:45:01;101590;;;15.8;67
61571;BME280;47463;49.884;10.010;2023-07-31T04:50:01;101590;;;15.8;67
61571;BME280;47463;49.884;10.010;2023-07-31T04:55:01;101590;;;15.9;66
61571;BME280;47463;49.884;10.010;2023-07-31T05:00:01;101580;;;16;66
61571;BME280;47463;49.884;10.010;2023-07-31T05:05:01;101590;;;16.1;66
61571;BME280;47463;49.884;10.010;2023-07-31T05:10:01;101590;;;16.2;65
61571;BME280;47463;49.884;10.010;2023-07-31T05:15:01;101590;;;16.2;65
61571;BME280;47463;49.884;10.010;2023-07-31T05:20:01;101580;;;16.3;65
61571;BME280;47463;49.884;10.010;2023-07-31T05:25:01;101580;;;16.4;65
61571;BME280;47463;49.884;10.010;2023-07-31T05:30:01;101570;;;16.5;64
61571;BME280;47463;49.884;10.010;2023-07-31T05:35:01;101570;;;16.6;64
61571;BME280;47463;49.884;10.010;2023-07-31T05:40:01;101570;;;16.7;64
61571;BME280;47463;49.884;10.010;2023-07-31T05:45:01;101570;;;16.7;64
61571;BME280;47463;49.884;10.010;2023-07-31T05:50:01;101560;;;16.8;63
61571;BME280;47463;49.884;10.010;2023-07-31T05:55:01;101570;;;16.9;63
61571;BME280;47463;49.884;10.010;2023-07-31T06:00:01;101570;;;16.9;62
61571;BME280;47463;49.884;10.010;2023-07-31T06:05:01;101560;;;17.1;62
61571;BME280;47463;49.884;10.010;2023-07-31T06:10:01;101560;;;17.3;62
61571;BME280;47463;49.884;10.010;2023-07-31T06:15:01;101560;;;17.4;61
61571;BME280;47463;49.884;10.010;2023-07-31T06:20:01;101550;;;17.4;61
61571;BME280;47463;49.884;10.010;2023-07-31T06:25:01;101560;;;17.5;60
61571;BME280;47463;49.884;10.010;2023-07-31T06:30:01;101570;;;17.4;60
61571;BME280;47463;49.884;10.010;2023-07-31T06:35:01;101560;;;17.4;60
61571;BME280;47463;49.884;10.010;2023-07-31T06:40:01;101560;;;17.5;60
61571;BME280;47463;49.884;10.010;2023-07-31T06:45:01;101570;;;17.5;60
61571;BME280;47463;49.884;10.010;2023-07-31T06:50:01;101580;;;17.6;60
61571;BME280;47463;49.884;10.010;2023-07-31T06:55:01;101570;;;17.6;60
61571;BME280;47463;49.884;10.010;2023-07-31T07:00:01;101570;;;17.7;60
61571;BME280;47463;49.884;10.010;2023-07-31T07:05:01;101570;;;17.6;60
61571;BME280;47463;49.884;10.010;2023-07-31T07:10:01;101580;;;17.7;60
61571;BME280;47463;49.884;10.010;2023-07-31T07:15:01;101570;;;17.6;59
61571;BME280;47463;49.884;10.010;2023-07-31T07:20:01;101570;;;17.8;59
61571;BME280;47463;49.884;10.010;2023-07-31T07:25:01;101560;;;18.1;59
61571;BME280;47463;49.884;10.010;2023-07-31T07:30:01;101560;;;18.1;58
61571;BME280;47463;49.884;10.010;2023-07-31T07:35:01;101540;;;18.2;58
61571;BME280;47463;49.884;10.010;2023-07-31T07:40:01;101540;;;18.2;58
61571;BME280;47463;49.884;10.010;2023-07-31T07:45:01;101550;;;18.4;59
61571;BME280;47463;49.884;10.010;2023-07-31T07:50:01;101550;;;18.5;58
61571;BME280;47463;49.884;10.010;2023-07-31T07:55:01;101540;;;18.4;58
61571;BME280;47463;49.884;10.010;2023-07-31T08:00:01;101540;;;18.6;58
61571;BME280;47463;49.884;10.010;2023-07-31T08:05:01;101530;;;18.9;58
61571;BME280;47463;49.884;10.010;2023-07-31T08:10:01;101530;;;19.1;57
61571;BME280;47463;49.884;10.010;2023-07-31T08:15:01;101520;;;18.9;57
61571;BME280;47463;49.884;10.010;2023-07-31T08:20:01;101520;;;18.9;57
61571;BME280;47463;49.884;10.010;2023-07-31T08:25:01;101520;;;18.8;57
61571;BME280;47463;49.884;10.010;2023-07-31T08:30:01;101520;;;18.9;57
61571;BME280;47463;49.884;10.010;2023-07-31T08:35:01;101540;;;18.7;57
61571;BME280;47463;49.884;10.010;2023-07-31T08:40:01;101520;;;18.8;57
61571;BME280;47463;49.884;10.010;2023-07-31T08:45:01;101520;;;19.1;57
61571;BME280;47463;49.884;10.010;2023-07-31T08:50:01;101520;;;19.3;57
61571;BME280;47463;49.884;10.010;2023-07-31T08:55:01;101510;;;19.1;57
61571;BME280;47463;49.884;10.010;2023-07-31T09:00:01;101510;;;19.2;57
61571;BME280;47463;49.884;10.010;2023-07-31T09:05:01;101510;;;19.2;57
61571;BME280;47463;49.884;10.010;2023-07-31T09:10:01;101500;;;19.3;57
61571;BME280;47463;49.884;10.010;2023-07-31T09:15:01;101500;;;19.7;56
61571;BME280;47463;49.884;10.010;2023-07-31T09:20:12;101500;;;19.5;56
61571;BME280;47463;49.884;10.010;2023-07-31T09:25:04;101500;;;19.6;56
61571;BME280;47463;49.884;10.010;2023-07-31T09:30:01;101480;;;19.6;56
61571;BME280;47463;49.884;10.010;2023-07-31T09:35:01;101480;;;19.6;56
61571;BME280;47463;49.884;10.010;2023-07-31T09:40:01;101470;;;20;55
61571;BME280;47463;49.884;10.010;2023-07-31T09:45:08;101470;;;20;55
61571;BME280;47463;49.884;10.010;2023-07-31T09:50:01;101450;;;20.2;54
61571;BME280;47463;49.884;10.010;2023-07-31T09:55:01;101450;;;20.2;54
61571;BME280;47463;49.884;10.010;2023-07-31T10:00:01;101440;;;20.1;54
61571;BME280;47463;49.884;10.010;2023-07-31T10:05:02;101440;;;20;54
61571;BME280;47463;49.884;10.010;2023-07-31T10:10:01;101440;;;20.2;54
61571;BME280;47463;49.884;10.010;2023-07-31T10:15:01;101440;;;20.2;53
61571;BME280;47463;49.884;10.010;2023-07-31T10:20:01;101430;;;20.2;53
61571;BME280;47463;49.884;10.010;2023-07-31T10:25:01;101430;;;20.2;53
61571;BME280;47463;49.884;10.010;2023-07-31T10:30:01;101440;;;20.3;53
61571;BME280;47463;49.884;10.010;2023-07-31T10:35:01;101430;;;20.3;53
61571;BME280;47463;49.884;10.010;2023-07-31T10:40:02;101430;;;20.6;53
61571;BME280;47463;49.884;10.010;2023-07-31T10:45:02;101430;;;20.4;53
61571;BME280;47463;49.884;10.010;2023-07-31T10:50:17;101410;;;20.3;53
61571;BME280;47463;49.884;10.010;2023-07-31T10:55:23;101430;;;20.1;54
61571;BME280;47463;49.884;10.010;2023-07-31T11:00:17;101420;;;20;54
61571;BME280;47463;49.884;10.010;2023-07-31T11:05:08;101410;;;20.1;54
61571;BME280;47463;49.884;10.010;2023-07-31T11:10:01;101390;;;20.2;54
61571;BME280;47463;49.884;10.010;2023-07-31T11:15:01;101390;;;20.4;53
61571;BME280;47463;49.884;10.010;2023-07-31T11:20:01;101380;;;20.5;53
61571;BME280;47463;49.884;10.010;2023-07-31T11:25:01;101380;;;20.7;53
61571;BME280;47463;49.884;10.010;2023-07-31T11:30:01;101360;;;20.7;51
61571;BME280;47463;49.884;10.010;2023-07-31T11:35:01;101370;;;20.9;50
61571;BME280;47463;49.884;10.010;2023-07-31T11:40:01;101380;;;21;49
61571;BME280;47463;49.884;10.010;2023-07-31T11:45:02;101370;;;21;49
61571;BME280;47463;49.884;10.010;2023-07-31T11:50:01;101360;;;21;48
61571;BME280;47463;49.884;10.010;2023-07-31T11:55:01;101370;;;20.8;49
61571;BME280;47463;49.884;10.010;2023-07-31T12:00:01;101350;;;21;49
61571;BME280;47463;49.884;10.010;2023-07-31T12:05:01;101350;;;21.2;48
61571;BME280;47463;49.884;10.010;2023-07-31T12:10:01;101350;;;21.2;48
61571;BME280;47463;49.884;10.010;2023-07-31T12:15:01;101340;;;21.6;48
61571;BME280;47463;49.884;10.010;2023-07-31T12:20:01;101340;;;21.8;47
61571;BME280;47463;49.884;10.010;2023-07-31T12:25:01;101340;;;21.6;47
61571;BME280;47463;49.884;10.010;2023-07-31T12:30:01;101330;;;21;49
61571;BME280;47463;49.884;10.010;2023-07-31T12:35:01;101320;;;21;50
61571;BME280;47463;49.884;10.010;2023-07-31T12:40:01;101310;;;21.2;48
61571;BME280;47463;49.884;10.010;2023-07-31T12:45:01;101300;;;21.3;48
61571;BME280;47463;49.884;10.010;2023-07-31T12:50:01;101300;;;21.7;48
61571;BME280;47463;49.884;10.010;2023-07-31T12:55:01;101300;;;21.6;48
61571;BME280;47463;49.884;10.010;2023-07-31T13:00:01;101280;;;21.4;47
61571;BME280;47463;49.884;10.010;2023-07-31T13:05:01;101270;;;21.4;48
61571;BME280;47463;49.884;10.010;2023-07-31T13:10:01;101260;;;21.5;48
61571;BME280;47463;49.884;10.010;2023-07-31T13:15:01;101270;;;21.4;49
61571;BME280;47463;49.884;10.010;2023-07-31T13:20:01;101280;;;21;51
61571;BME280;47463;49.884;10.010;2023-07-31T13:25:01;101270;;;21.3;51
61571;BME280;47463;49.884;10.010;2023-07-31T13:30:01;101260;;;21;50
61571;BME280;47463;49.884;10.010;2023-07-31T13:35:01;101260;;;21.1;51
61571;BME280;47463;49.884;10.010;2023-07-31T13:40:01;101250;;;21.3;51
61571;BME280;47463;49.884;10.010;2023-07-31T13:45:01;101250;;;21.3;50
61571;BME280;47463;49.884;10.010;2023-07-31T13:50:01;101240;;;21.2;51
61571;BME280;47463;49.884;10.010;2023-07-31T13:55:01;101230;;;21.3;50
61571;BME280;47463;49.884;10.010;2023-07-31T14:00:01;101230;;;21.8;49
61571;BME280;47463;49.884;10.010;2023-07-31T14:05:01;101220;;;21.7;49
61571;BME280;47463;49.884;10.010;2023-07-31T14:10:01;101210;;;21.4;49
61571;BME280;47463;49.884;10.010;2023-07-31T14:20:01;101220;;;21.2;49
61571;BME280;47463;49.884;10.010;2023-07-31T14:25:01;101220;;;21;49
61571;BME280;47463;49.884;10.010;2023-07-31T14:30:01;101220;;;21;49
61571;BME280;47463;49.884;10.010;2023-07-31T14:35:01;101220;;;21.2;50
61571;BME280;47463;49.884;10.010;2023-07-31T14:40:01;101220;;;21.2;50
61571;BME280;47463;49.884;10.010;2023-07-31T14:45:01;101220;;;21.3;50
61571;BME280;47463;49.884;10.010;2023-07-31T14:50:01;101190;;;21.2;50
61571;BME280;47463;49.884;10.010;2023-07-31T14:55:01;101200;;;21.1;50
61571;BME280;47463;49.884;10.010;2023-07-31T15:00:01;101200;;;21;51
61571;BME280;47463;49.884;10.010;2023-07-31T15:05:01;101200;;;21;51
61571;BME280;47463;49.884;10.010;2023-07-31T15:10:01;101200;;;21;51
61571;BME280;47463;49.884;10.010;2023-07-31T15:15:01;101180;;;21.1;51
61571;BME280;47463;49.884;10.010;2023-07-31T15:20:01;101170;;;21.1;51
61571;BME280;47463;49.884;10.010;2023-07-31T15:25:01;101160;;;21.1;51
61571;BME280;47463;49.884;10.010;2023-07-31T15:30:01;101150;;;21;51
61571;BME280;47463;49.884;10.010;2023-07-31T15:35:01;101140;;;21.1;52
61571;BME280;47463;49.884;10.010;2023-07-31T15:40:01;101140;;;21;52
61571;BME280;47463;49.884;10.010;2023-07-31T15:45:01;101130;;;21;52
61571;BME280;47463;49.884;10.010;2023-07-31T15:50:01;101120;;;21;52
61571;BME280;47463;49.884;10.010;2023-07-31T15:55:01;101120;;;21;52
61571;BME280;47463;49.884;10.010;2023-07-31T16:00:01;101130;;;21;52
61571;BME280;47463;49.884;10.010;2023-07-31T16:05:01;101130;;;21;52
61571;BME280;47463;49.884;10.010;2023-07-31T16:10:01;101130;;;21;52
61571;BME280;47463;49.884;10.010;2023-07-31T16:15:01;101110;;;21;52
61571;BME280;47463;49.884;10.010;2023-07-31T16:20:01;101120;;;20.9;53
61571;BME280;47463;49.884;10.010;2023-07-31T16:25:01;101120;;;20.9;53
61571;BME280;47463;49.884;10.010;2023-07-31T16:30:01;101110;;;20.8;53
61571;BME280;47463;49.884;10.010;2023-07-31T16:35:01;101120;;;20.8;53
61571;BME280;47463;49.884;10.010;2023-07-31T16:40:01;101120;;;20.7;53
61571;BME280;47463;49.884;10.010;2023-07-31T16:45:01;101110;;;20.7;53
61571;BME280;47463;49.884;10.010;2023-07-31T16:50:01;101110;;;20.7;53
61571;BME280;47463;49.884;10.010;2023-07-31T16:55:01;101120;;;20.6;53
61571;BME280;47463;49.884;10.010;2023-07-31T17:00:01;101120;;;20.6;53
61571;BME280;47463;49.884;10.010;2023-07-31T17:05:01;101120;;;20.6;54
61571;BME280;47463;49.884;10.010;2023-07-31T17:10:01;101120;;;20.5;54
61571;BME280;47463;49.884;10.010;2023-07-31T17:15:01;101110;;;20.4;54
61571;BME280;47463;49.884;10.010;2023-07-31T17:20:01;101110;;;20.3;55
61571;BME280;47463;49.884;10.010;2023-07-31T17:25:01;101120;;;20.1;56
61571;BME280;47463;49.884;10.010;2023-07-31T17:30:01;101110;;;20.1;57
61571;BME280;47463;49.884;10.010;2023-07-31T17:35:01;101090;;;19.9;58
61571;BME280;47463;49.884;10.010;2023-07-31T17:40:01;101090;;;19.9;58
61571;BME280;47463;49.884;10.010;2023-07-31T17:45:01;101090;;;19.9;58
61571;BME280;47463;49.884;10.010;2023-07-31T17:50:01;101080;;;19.9;58
61571;BME280;47463;49.884;10.010;2023-07-31T17:55:01;101080;;;19.9;58
61571;BME280;47463;49.884;10.010;2023-07-31T18:00:01;101080;;;19.9;58
61571;BME280;47463;49.884;10.010;2023-07-31T18:05:01;101080;;;19.8;58
61571;BME280;47463;49.884;10.010;2023-07-31T18:10:01;101070;;;19.9;57
61571;BME280;47463;49.884;10.010;2023-07-31T18:15:01;101070;;;19.9;57
61571;BME280;47463;49.884;10.010;2023-07-31T18:20:01;101060;;;19.8;58
61571;BME280;47463;49.884;10.010;2023-07-31T18:25:01;101070;;;19.6;59
61571;BME280;47463;49.884;10.010;2023-07-31T18:30:01;101050;;;19.4;61
61571;BME280;47463;49.884;10.010;2023-07-31T18:35:01;101050;;;19.1;62
61571;BME280;47463;49.884;10.010;2023-07-31T18:40:01;101050;;;19.1;63
61571;BME280;47463;49.884;10.010;2023-07-31T18:45:01;101050;;;19;63
61571;BME280;47463;49.884;10.010;2023-07-31T18:50:01;101050;;;18.9;64
61571;BME280;47463;49.884;10.010;2023-07-31T18:55:01;101040;;;19;63
61571;BME280;47463;49.884;10.010;2023-07-31T19:00:01;101040;;;19.1;63
61571;BME280;47463;49.884;10.010;2023-07-31T19:05:01;101020;;;18.9;64
61571;BME280;47463;49.884;10.010;2023-07-31T19:10:01;101030;;;18.8;64
61571;BME280;47463;49.884;10.010;2023-07-31T19:15:01;101040;;;18.9;64
61571;BME280;47463;49.884;10.010;2023-07-31T19:20:01;101030;;;19;63
61571;BME280;47463;49.884;10.010;2023-07-31T19:25:01;101030;;;18.7;65
61571;BME280;47463;49.884;10.010;2023-07-31T19:30:01;101040;;;18.5;66
61571;BME280;47463;49.884;10.010;2023-07-31T19:35:01;101040;;;18.4;66
61571;BME280;47463;49.884;10.010;2023-07-31T19:40:01;101040;;;18.3;67
61571;BME280;47463;49.884;10.010;2023-07-31T19:45:01;101040;;;18.3;67
61571;BME280;47463;49.884;10.010;2023-07-31T19:50:01;101030;;;18.2;68
61571;BME280;47463;49.884;10.010;2023-07-31T19:55:01;101050;;;18.1;69
61571;BME280;47463;49.884;10.010;2023-07-31T20:00:01;101040;;;18;69
61571;BME280;47463;49.884;10.010;2023-07-31T20:05:01;101030;;;18;69
61571;BME280;47463;49.884;10.010;2023-07-31T20:10:01;101040;;;17.9;70
61571;BME280;47463;49.884;10.010;2023-07-31T20:15:01;101030;;;17.9;70
61571;BME280;47463;49.884;10.010;2023-07-31T20:20:01;101030;;;17.9;70
61571;BME280;47463;49.884;10.010;2023-07-31T20:25:01;101030;;;17.8;71
61571;BME280;47463;49.884;10.010;2023-07-31T20:30:01;101020;;;17.8;71
61571;BME280;47463;49.884;10.010;2023-07-31T20:35:01;101020;;;17.8;71
61571;BME280;47463;49.884;10.010;2023-07-31T20:40:04;101030;;;17.7;72
61571;BME280;47463;49.884;10.010;2023-07-31T20:45:01;101020;;;17.7;72
61571;BME280;47463;49.884;10.010;2023-07-31T20:50:01;101000;;;17.6;72
61571;BME280;47463;49.884;10.010;2023-07-31T20:55:01;100980;;;17.6;73
61571;BME280;47463;49.884;10.010;2023-07-31T21:00:01;100990;;;17.5;73
61571;BME280;47463;49.884;10.010;2023-07-31T21:05:01;100970;;;17.5;73
61571;BME280;47463;49.884;10.010;2023-07-31T21:10:01;100960;;;17.4;74
61571;BME280;47463;49.884;10.010;2023-07-31T21:15:01;100960;;;17.4;74
61571;BME280;47463;49.884;10.010;2023-07-31T21:20:01;100950;;;17.4;74
61571;BME280;47463;49.884;10.010;2023-07-31T21:25:01;100940;;;17.4;74
61571;BME280;47463;49.884;10.010;2023-07-31T21:30:01;100940;;;17.5;73
61571;BME280;47463;49.884;10.010;2023-07-31T21:35:01;100940;;;17.5;73
61571;BME280;47463;49.884;10.010;2023-07-31T21:40:01;100930;;;17.5;73
61571;BME280;47463;49.884;10.010;2023-07-31T21:45:01;100930;;;17.4;73
61571;BME280;47463;49.884;10.010;2023-07-31T21:50:01;100930;;;17.3;74
61571;BME280;47463;49.884;10.010;2023-07-31T21:55:01;100920;;;17.2;74
61571;BME280;47463;49.884;10.010;2023-07-31T22:00:01;100910;;;17.2;74
61571;BME280;47463;49.884;10.010;2023-07-31T22:05:01;100890;;;17.2;74
61571;BME280;47463;49.884;10.010;2023-07-31T22:10:01;100890;;;17.1;75
61571;BME280;47463;49.884;10.010;2023-07-31T22:15:01;100880;;;17;75
61571;BME280;47463;49.884;10.010;2023-07-31T22:20:01;100870;;;16.9;76
61571;BME280;47463;49.884;10.010;2023-07-31T22:25:01;100860;;;16.7;77
61571;BME280;47463;49.884;10.010;2023-07-31T22:30:01;100840;;;16.6;78
61571;BME280;47463;49.884;10.010;2023-07-31T22:35:01;100840;;;16.5;79
61571;BME280;47463;49.884;10.010;2023-07-31T22:40:01;100830;;;16.4;79
61571;BME280;47463;49.884;10.010;2023-07-31T22:45:01;100830;;;16.4;80
61571;BME280;47463;49.884;10.010;2023-07-31T22:50:01;100810;;;16.2;81
61571;BME280;47463;49.884;10.010;2023-07-31T22:55:01;100810;;;16.2;82
61571;BME280;47463;49.884;10.010;2023-07-31T23:00:01;100790;;;16.1;82
61571;BME280;47463;49.884;10.010;2023-07-31T23:05:01;100780;;;16.1;82
61571;BME280;47463;49.884;10.010;2023-07-31T23:10:01;100770;;;16.1;83
61571;BME280;47463;49.884;10.010;2023-07-31T23:15:01;100770;;;16;83
61571;BME280;47463;49.884;10.010;2023-07-31T23:20:01;100760;;;16;84
61571;BME280;47463;49.884;10.010;2023-07-31T23:25:01;100750;;;16;84
61571;BME280;47463;49.884;10.010;2023-07-31T23:30:01;100750;;;15.9;85
61571;BME280;47463;49.884;10.010;2023-07-31T23:35:01;100750;;;15.9;85
61571;BME280;47463;49.884;10.010;2023-07-31T23:40:01;100740;;;15.9;85
61571;BME280;47463;49.884;10.010;2023-07-31T23:45:01;100740;;;15.9;85
61571;BME280;47463;49.884;10.010;2023-07-31T23:50:01;100730;;;15.8;86
61571;BME280;47463;49.884;10.010;2023-07-31T23:55:01;100710;;;15.8;86
